createdAt,value
2018-02-22T00:01:42.627Z,-0.30
2018-02-22T00:04:10.280Z,-0.40
2018-02-22T00:06:38.660Z,-0.40
2018-02-22T00:09:07.028Z,-0.40
2018-02-22T00:11:35.373Z,-0.40
2018-02-22T00:14:03.022Z,-0.40
2018-02-22T00:16:30.626Z,-0.40
2018-02-22T00:18:58.257Z,-0.50
2018-02-22T00:21:26.005Z,-0.50
2018-02-22T00:23:53.740Z,-0.40
2018-02-22T00:26:22.046Z,-0.40
2018-02-22T00:28:49.652Z,-0.40
2018-02-22T00:31:17.229Z,-0.40
2018-02-22T00:33:44.812Z,-0.30
2018-02-22T00:36:12.689Z,-0.40
2018-02-22T00:38:40.255Z,-0.30
2018-02-22T00:41:07.917Z,-0.30
2018-02-22T00:43:35.540Z,-0.30
2018-02-22T00:46:03.862Z,-0.30
2018-02-22T00:48:31.420Z,-0.30
2018-02-22T00:50:58.972Z,-0.30
2018-02-22T00:53:26.583Z,-0.30
2018-02-22T00:55:54.904Z,-0.30
2018-02-22T00:58:22.481Z,-0.40
2018-02-22T01:00:50.049Z,-0.40
2018-02-22T01:03:17.621Z,-0.40
2018-02-22T01:05:45.381Z,-0.40
2018-02-22T01:08:13.735Z,-0.40
2018-02-22T01:10:41.338Z,-0.40
2018-02-22T01:13:08.912Z,-0.50
2018-02-22T01:15:37.248Z,-0.50
2018-02-22T01:18:04.809Z,-0.60
2018-02-22T01:20:32.409Z,-0.50
2018-02-22T01:23:00.738Z,-0.50
2018-02-22T01:25:28.332Z,-0.50
2018-02-22T01:27:55.908Z,-0.50
2018-02-22T01:30:23.592Z,-0.50
2018-02-22T01:32:51.269Z,-0.40
2018-02-22T01:35:18.862Z,-0.50
2018-02-22T01:37:46.432Z,-0.50
2018-02-22T01:40:14.192Z,-0.50
2018-02-22T01:42:41.751Z,-0.50
2018-02-22T01:45:10.190Z,-0.50
2018-02-22T01:47:37.764Z,-0.50
2018-02-22T01:50:05.342Z,-0.50
2018-02-22T01:52:32.945Z,-0.50
2018-02-22T01:55:01.299Z,-0.50
2018-02-22T01:57:29.677Z,-0.60
2018-02-22T01:59:57.242Z,-0.60
2018-02-22T02:02:24.893Z,-0.60
2018-02-22T02:04:52.517Z,-0.60
2018-02-22T02:07:20.096Z,-0.50
2018-02-22T02:09:47.649Z,-0.60
2018-02-22T02:12:15.238Z,-0.60
2018-02-22T02:14:42.830Z,-0.70
2018-02-22T02:17:11.194Z,-0.60
2018-02-22T02:19:39.522Z,-0.70
2018-02-22T02:22:07.081Z,-0.70
2018-02-22T02:24:34.638Z,-0.70
2018-02-22T02:27:02.214Z,-0.70
2018-02-22T02:29:29.805Z,-0.70
2018-02-22T02:31:57.402Z,-0.80
2018-02-22T02:34:24.957Z,-0.80
2018-02-22T02:36:52.527Z,-0.80
2018-02-22T02:39:20.117Z,-0.90
2018-02-22T02:41:47.790Z,-0.90
2018-02-22T02:44:15.371Z,-1.00
2018-02-22T02:46:42.961Z,-1.00
2018-02-22T02:49:10.537Z,-1.00
2018-02-22T02:51:38.122Z,-1.00
2018-02-22T02:54:05.680Z,-1.00
2018-02-22T02:56:33.260Z,-1.00
2018-02-22T02:59:00.854Z,-1.00
2018-02-22T03:01:29.186Z,-1.00
2018-02-22T03:03:56.763Z,-1.00
2018-02-22T03:06:24.360Z,-1.10
2018-02-22T03:08:52.467Z,-1.10
2018-02-22T03:11:20.150Z,-1.10
2018-02-22T03:13:47.724Z,-1.10
2018-02-22T03:16:15.311Z,-1.10
2018-02-22T03:18:42.865Z,-1.00
2018-02-22T03:21:11.209Z,-1.00
2018-02-22T03:23:38.770Z,-1.00
2018-02-22T03:26:06.336Z,-1.00
2018-02-22T03:28:33.881Z,-1.00
2018-02-22T03:31:01.458Z,-1.00
2018-02-22T03:33:29.020Z,-1.00
2018-02-22T03:35:56.577Z,-1.10
2018-02-22T03:38:24.142Z,-1.10
2018-02-22T03:40:51.795Z,-1.10
2018-02-22T03:43:19.362Z,-1.10
2018-02-22T03:45:46.962Z,-1.10
2018-02-22T03:48:15.304Z,-1.20
2018-02-22T03:50:42.897Z,-1.20
2018-02-22T03:53:10.466Z,-1.20
2018-02-22T03:55:38.050Z,-1.20
2018-02-22T03:58:05.631Z,-1.20
2018-02-22T04:00:33.216Z,-1.20
2018-02-22T04:03:01.577Z,-1.30
2018-02-22T04:05:29.178Z,-1.30
2018-02-22T04:07:56.805Z,-1.30
2018-02-22T04:10:24.461Z,-1.30
2018-02-22T04:12:52.030Z,-1.30
2018-02-22T04:15:19.587Z,-1.30
2018-02-22T04:17:47.199Z,-1.30
2018-02-22T04:20:14.812Z,-1.30
2018-02-22T04:22:42.418Z,-1.30
2018-02-22T04:25:10.023Z,-1.30
2018-02-22T04:27:37.597Z,-1.30
2018-02-22T04:30:05.921Z,-1.30
2018-02-22T04:32:33.511Z,-1.30
2018-02-22T04:35:01.064Z,-1.20
2018-02-22T04:37:28.638Z,-1.20
2018-02-22T04:39:56.972Z,-1.30
2018-02-22T04:42:24.537Z,-1.30
2018-02-22T04:44:52.186Z,-1.30
2018-02-22T04:47:19.813Z,-1.30
2018-02-22T04:49:47.534Z,-1.30
2018-02-22T04:52:15.126Z,-1.30
2018-02-22T04:54:42.685Z,-1.20
2018-02-22T04:57:11.257Z,-1.30
2018-02-22T04:59:39.880Z,-1.30
2018-02-22T05:02:08.213Z,-1.20
2018-02-22T05:04:35.785Z,-1.20
2018-02-22T05:07:03.339Z,-1.20
2018-02-22T05:09:31.060Z,-1.20
2018-02-22T05:11:58.617Z,-1.20
2018-02-22T05:14:26.228Z,-1.20
2018-02-22T05:16:53.800Z,-1.20
2018-02-22T05:19:21.349Z,-1.30
2018-02-22T05:21:49.074Z,-1.30
2018-02-22T05:24:16.642Z,-1.40
2018-02-22T05:26:44.203Z,-1.40
2018-02-22T05:29:11.773Z,-1.50
2018-02-22T05:31:39.361Z,-1.50
2018-02-22T05:34:06.964Z,-1.50
2018-02-22T05:36:34.578Z,-1.50
2018-02-22T05:39:02.155Z,-1.60
2018-02-22T05:41:29.718Z,-1.60
2018-02-22T05:43:58.247Z,-1.60
2018-02-22T05:46:32.741Z,-1.60
2018-02-22T05:49:00.388Z,-1.60
2018-02-22T05:51:28.101Z,-1.60
2018-02-22T05:53:55.729Z,-1.60
2018-02-22T05:56:24.208Z,-1.70
2018-02-22T05:58:53.002Z,-1.70
2018-02-22T06:01:20.558Z,-1.70
2018-02-22T06:03:48.106Z,-1.60
2018-02-22T06:06:16.476Z,-1.70
2018-02-22T06:08:44.042Z,-1.70
2018-02-22T06:11:12.523Z,-1.50
2018-02-22T06:13:40.950Z,-1.50
2018-02-22T06:16:08.527Z,-1.50
2018-02-22T06:18:36.109Z,-1.50
2018-02-22T06:21:03.672Z,-1.50
2018-02-22T06:23:31.238Z,-1.50
2018-02-22T06:25:58.804Z,-1.50
2018-02-22T06:28:27.453Z,-1.50
2018-02-22T06:30:55.188Z,-1.50
2018-02-22T06:33:22.767Z,-1.40
2018-02-22T06:35:50.330Z,-1.30
2018-02-22T06:38:17.941Z,-1.30
2018-02-22T06:40:46.294Z,-1.30
2018-02-22T06:43:14.009Z,-1.30
2018-02-22T06:45:41.682Z,-1.30
2018-02-22T06:48:09.257Z,-1.20
2018-02-22T06:50:36.827Z,-1.20
2018-02-22T06:53:04.390Z,-1.30
2018-02-22T06:55:32.741Z,-1.20
2018-02-22T06:58:00.593Z,-1.20
2018-02-22T07:00:28.167Z,-1.30
2018-02-22T07:02:55.737Z,-1.20
2018-02-22T07:05:23.316Z,-1.20
2018-02-22T07:07:51.037Z,-1.20
2018-02-22T07:10:18.746Z,-1.20
2018-02-22T07:12:47.817Z,-1.10
2018-02-22T07:15:15.373Z,-1.10
2018-02-22T07:17:42.948Z,-1.10
2018-02-22T07:20:10.518Z,-1.00
2018-02-22T07:22:38.100Z,-1.00
2018-02-22T07:25:06.421Z,-0.90
2018-02-22T07:27:34.022Z,-0.90
2018-02-22T07:30:01.578Z,-1.00
2018-02-22T07:32:29.153Z,-0.90
2018-02-22T07:34:56.701Z,-0.80
2018-02-22T07:37:24.262Z,-0.70
2018-02-22T07:39:52.614Z,-0.60
2018-02-22T07:42:20.177Z,-0.60
2018-02-22T07:44:47.805Z,-0.60
2018-02-22T07:47:15.388Z,-0.50
2018-02-22T07:49:42.965Z,-0.50
2018-02-22T07:52:10.548Z,-0.50
2018-02-22T07:54:38.129Z,-0.50
2018-02-22T07:57:06.445Z,-0.40
2018-02-22T07:59:34.025Z,-0.40
2018-02-22T08:02:01.600Z,-0.40
2018-02-22T08:04:29.165Z,-0.40
2018-02-22T08:06:57.561Z,-1.80
2018-02-22T08:09:25.914Z,-0.20
2018-02-22T08:11:53.461Z,-0.30
2018-02-22T08:14:21.038Z,-0.20
2018-02-22T08:16:48.601Z,-0.10
2018-02-22T08:19:16.166Z,-0.10
2018-02-22T08:21:43.740Z,0.00
2018-02-22T08:24:12.095Z,0.20
2018-02-22T08:26:39.732Z,0.20
2018-02-22T08:29:07.274Z,0.30
2018-02-22T08:31:34.853Z,0.40
2018-02-22T08:34:02.444Z,0.50
2018-02-22T08:36:30.006Z,0.60
2018-02-22T08:38:57.609Z,0.70
2018-02-22T08:41:25.174Z,0.80
2018-02-22T08:43:52.741Z,0.70
2018-02-22T08:46:20.297Z,0.80
2018-02-22T08:48:47.865Z,0.90
2018-02-22T08:51:15.455Z,1.10
2018-02-22T08:53:43.008Z,1.10
2018-02-22T08:56:10.725Z,1.20
2018-02-22T08:58:38.297Z,1.40
2018-02-22T09:01:05.984Z,1.50
2018-02-22T09:03:33.548Z,1.60
2018-02-22T09:06:01.207Z,1.70
2018-02-22T09:08:28.821Z,1.80
2018-02-22T09:10:57.158Z,2.00
2018-02-22T09:13:24.778Z,2.00
2018-02-22T09:15:52.383Z,2.00
2018-02-22T09:18:19.974Z,2.00
2018-02-22T09:20:48.322Z,2.10
2018-02-22T09:23:17.402Z,2.20
2018-02-22T09:25:44.947Z,2.10
2018-02-22T09:28:12.518Z,2.20
2018-02-22T09:30:40.206Z,2.40
2018-02-22T09:33:07.783Z,2.50
2018-02-22T09:35:36.112Z,2.60
2018-02-22T09:38:03.674Z,2.60
2018-02-22T09:40:31.233Z,2.80
2018-02-22T09:42:58.876Z,2.80
2018-02-22T09:45:26.442Z,2.80
2018-02-22T09:47:54.038Z,2.80
2018-02-22T09:50:21.629Z,2.90
2018-02-22T09:52:49.940Z,3.00
2018-02-22T09:55:17.535Z,3.00
2018-02-22T09:57:45.090Z,3.00
2018-02-22T10:00:12.714Z,3.00
2018-02-22T10:02:40.312Z,3.00
2018-02-22T10:05:07.882Z,3.10
2018-02-22T10:07:35.451Z,3.10
2018-02-22T10:10:03.024Z,3.10
2018-02-22T10:12:31.368Z,3.20
2018-02-22T10:14:58.934Z,3.20
2018-02-22T10:17:26.527Z,3.30
2018-02-22T10:19:54.844Z,3.30
2018-02-22T10:22:22.421Z,3.20
2018-02-22T10:24:49.996Z,3.30
2018-02-22T10:27:17.592Z,3.30
2018-02-22T10:29:45.106Z,3.30
2018-02-22T10:32:12.678Z,3.30
2018-02-22T10:34:40.234Z,3.40
2018-02-22T10:37:07.813Z,3.40
2018-02-22T10:39:36.127Z,3.40
2018-02-22T10:42:03.696Z,3.40
2018-02-22T10:44:31.287Z,3.30
2018-02-22T10:46:58.858Z,3.40
2018-02-22T10:49:26.434Z,3.40
2018-02-22T10:51:54.789Z,3.60
2018-02-22T10:54:22.375Z,3.50
2018-02-22T10:56:50.704Z,3.60
2018-02-22T10:59:18.272Z,3.60
2018-02-22T11:01:51.516Z,3.70
2018-02-22T11:04:19.845Z,3.80
2018-02-22T11:06:47.385Z,3.80
2018-02-22T11:09:14.961Z,3.80
2018-02-22T11:11:42.493Z,3.90
2018-02-22T11:14:10.083Z,3.90
2018-02-22T11:16:37.645Z,3.90
2018-02-22T11:19:05.238Z,4.00
2018-02-22T11:21:33.565Z,4.10
2018-02-22T11:24:01.151Z,4.00
2018-02-22T11:26:28.720Z,4.10
2018-02-22T11:28:56.272Z,4.20
2018-02-22T11:31:23.857Z,4.30
2018-02-22T11:33:51.427Z,4.30
2018-02-22T11:36:19.765Z,4.40
2018-02-22T11:38:47.318Z,4.40
2018-02-22T11:41:14.878Z,4.40
2018-02-22T11:43:42.481Z,4.30
2018-02-22T11:46:10.832Z,4.30
2018-02-22T11:48:38.375Z,4.20
2018-02-22T11:51:05.961Z,4.30
2018-02-22T11:53:33.521Z,4.20
2018-02-22T11:56:01.109Z,4.20
2018-02-22T11:58:29.519Z,4.40
2018-02-22T12:00:57.062Z,4.40
2018-02-22T12:03:24.622Z,4.50
2018-02-22T12:05:52.185Z,4.60
2018-02-22T12:08:19.765Z,4.60
2018-02-22T12:10:47.301Z,4.60
2018-02-22T12:13:14.897Z,4.60
2018-02-22T12:15:42.468Z,4.70
2018-02-22T12:18:10.070Z,4.70
2018-02-22T12:20:38.390Z,4.70
2018-02-22T12:23:05.978Z,4.70
2018-02-22T12:25:33.537Z,4.70
2018-02-22T12:28:01.094Z,4.80
2018-02-22T12:30:28.702Z,4.90
2018-02-22T12:32:56.256Z,5.00
2018-02-22T12:35:23.816Z,5.00
2018-02-22T12:37:51.387Z,5.00
2018-02-22T12:40:19.065Z,5.00
2018-02-22T12:42:46.597Z,5.00
2018-02-22T12:45:14.266Z,5.00
2018-02-22T12:47:41.818Z,5.00
2018-02-22T12:50:09.398Z,5.00
2018-02-22T12:52:37.161Z,5.00
2018-02-22T12:55:04.732Z,5.00
2018-02-22T12:57:32.291Z,5.00
2018-02-22T12:59:59.893Z,5.00
2018-02-22T13:02:28.206Z,5.10
2018-02-22T13:04:55.794Z,5.00
2018-02-22T13:07:23.359Z,5.10
2018-02-22T13:09:50.974Z,5.20
2018-02-22T13:12:19.290Z,5.20
2018-02-22T13:14:46.876Z,5.20
2018-02-22T13:17:14.438Z,5.20
2018-02-22T13:19:42.002Z,5.30
2018-02-22T13:22:09.557Z,5.30
2018-02-22T13:24:37.133Z,5.30
2018-02-22T13:27:05.462Z,5.20
2018-02-22T13:29:32.977Z,5.20
2018-02-22T13:32:01.317Z,5.30
2018-02-22T13:34:35.266Z,5.30
2018-02-22T13:40:02.482Z,5.40
2018-02-22T13:42:30.030Z,5.40
2018-02-22T13:45:09.490Z,5.30
2018-02-22T13:47:37.136Z,5.30
2018-02-22T13:50:16.677Z,5.30
2018-02-22T13:52:44.221Z,5.30
2018-02-22T13:55:11.765Z,5.30
2018-02-22T13:57:40.155Z,5.30
2018-02-22T14:00:07.692Z,5.30
2018-02-22T14:02:35.281Z,5.30
2018-02-22T14:05:02.869Z,5.30
2018-02-22T14:07:30.467Z,5.30
2018-02-22T14:09:58.045Z,5.40
2018-02-22T14:12:26.477Z,5.30
2018-02-22T14:14:54.041Z,5.30
2018-02-22T14:17:21.582Z,5.30
2018-02-22T14:19:49.152Z,5.30
2018-02-22T14:22:16.719Z,5.40
2018-02-22T14:24:44.300Z,5.40
2018-02-22T14:27:11.880Z,5.50
2018-02-22T14:29:40.226Z,5.50
2018-02-22T14:32:07.792Z,5.50
2018-02-22T14:34:35.373Z,5.40
2018-02-22T14:37:03.678Z,5.40
2018-02-22T14:39:31.278Z,5.40
2018-02-22T14:41:58.832Z,5.40
2018-02-22T14:44:26.479Z,5.40
2018-02-22T14:46:54.104Z,5.40
2018-02-22T14:49:22.453Z,5.40
2018-02-22T14:51:50.012Z,5.40
2018-02-22T14:54:17.596Z,5.40
2018-02-22T14:56:45.942Z,5.30
2018-02-22T14:59:13.561Z,5.20
2018-02-22T15:01:41.122Z,5.20
2018-02-22T15:04:08.687Z,5.10
2018-02-22T15:06:36.261Z,5.20
2018-02-22T15:09:03.852Z,5.10
2018-02-22T15:11:31.393Z,5.10
2018-02-22T15:13:58.969Z,5.00
2018-02-22T15:16:26.620Z,5.00
2018-02-22T15:18:54.177Z,5.00
2018-02-22T15:21:21.748Z,4.90
2018-02-22T15:23:49.348Z,4.90
2018-02-22T15:26:16.946Z,4.90
2018-02-22T15:28:44.515Z,4.90
2018-02-22T15:31:12.101Z,4.90
2018-02-22T15:33:39.716Z,4.80
2018-02-22T15:36:07.275Z,4.80
2018-02-22T15:38:34.824Z,4.80
2018-02-22T15:41:02.502Z,4.80
2018-02-22T15:43:30.057Z,4.70
2018-02-22T15:45:57.717Z,4.70
2018-02-22T15:48:25.278Z,4.70
2018-02-22T15:50:52.861Z,4.70
2018-02-22T15:53:20.405Z,4.70
2018-02-22T15:55:47.983Z,4.70
2018-02-22T15:58:15.764Z,4.60
2018-02-22T16:00:43.301Z,4.60
2018-02-22T16:03:10.867Z,4.50
2018-02-22T16:05:38.456Z,4.50
2018-02-22T16:08:06.027Z,4.40
2018-02-22T16:10:33.691Z,4.30
2018-02-22T16:13:01.242Z,4.30
2018-02-22T16:15:28.869Z,4.10
2018-02-22T16:17:56.423Z,4.10
2018-02-22T16:20:23.985Z,4.10
2018-02-22T16:22:51.591Z,4.10
2018-02-22T16:25:19.914Z,4.00
2018-02-22T16:27:47.709Z,4.00
2018-02-22T16:30:15.310Z,3.90
2018-02-22T16:32:43.677Z,3.90
2018-02-22T16:35:12.010Z,3.80
2018-02-22T16:37:39.583Z,3.70
2018-02-22T16:40:07.231Z,3.70
2018-02-22T16:42:34.802Z,3.70
2018-02-22T16:45:02.365Z,3.60
2018-02-22T16:47:29.930Z,3.60
2018-02-22T16:49:57.654Z,3.60
2018-02-22T16:52:25.217Z,3.50
2018-02-22T16:54:52.789Z,3.50
2018-02-22T16:57:20.341Z,3.40
2018-02-22T16:59:47.969Z,3.40
2018-02-22T17:02:16.304Z,3.30
2018-02-22T17:04:43.856Z,3.30
2018-02-22T17:07:11.465Z,3.20
2018-02-22T17:09:39.779Z,3.20
2018-02-22T17:12:07.376Z,3.10
2018-02-22T17:14:34.959Z,3.10
2018-02-22T17:17:03.266Z,3.00
2018-02-22T17:19:30.860Z,3.00
2018-02-22T17:21:58.438Z,3.00
2018-02-22T17:24:26.778Z,2.90
2018-02-22T17:26:59.958Z,2.90
2018-02-22T17:29:33.157Z,2.80
2018-02-22T17:32:06.361Z,2.80
2018-02-22T17:34:33.930Z,2.70
2018-02-22T17:37:20.158Z,2.70
2018-02-22T17:39:54.526Z,2.60
2018-02-22T17:42:22.114Z,2.50
2018-02-22T17:44:49.676Z,2.60
2018-02-22T17:47:17.264Z,2.50
2018-02-22T17:49:44.984Z,2.50
2018-02-22T17:52:12.563Z,2.40
2018-02-22T17:54:40.113Z,2.30
2018-02-22T17:57:07.773Z,2.30
2018-02-22T17:59:35.409Z,2.30
2018-02-22T18:02:03.882Z,2.40
2018-02-22T18:04:31.464Z,2.40
2018-02-22T18:06:59.073Z,2.30
2018-02-22T18:09:26.666Z,2.20
2018-02-22T18:11:54.229Z,2.20
2018-02-22T18:14:21.805Z,2.20
2018-02-22T18:16:49.470Z,2.20
2018-02-22T18:19:17.053Z,2.20
2018-02-22T18:21:44.633Z,2.10
2018-02-22T18:24:12.957Z,2.00
2018-02-22T18:26:40.533Z,2.00
2018-02-22T18:29:08.118Z,1.90
2018-02-22T18:31:35.689Z,1.90
2018-02-22T18:34:03.270Z,1.70
2018-02-22T18:36:31.588Z,1.50
2018-02-22T18:39:05.075Z,1.50
2018-02-22T18:41:38.261Z,1.50
2018-02-22T18:44:11.471Z,1.40
2018-02-22T18:46:39.080Z,1.40
2018-02-22T18:49:07.434Z,1.30
2018-02-22T18:51:35.158Z,1.40
2018-02-22T18:54:03.031Z,1.40
2018-02-22T18:56:30.589Z,1.40
2018-02-22T18:58:58.194Z,1.40
2018-02-22T19:01:25.797Z,1.50
2018-02-22T19:03:53.364Z,1.50
2018-02-22T19:06:20.976Z,1.50
2018-02-22T19:08:48.546Z,1.50
2018-02-22T19:11:16.124Z,1.60
2018-02-22T19:13:43.702Z,1.50
2018-02-22T19:16:11.330Z,1.50
2018-02-22T19:18:39.676Z,1.50
2018-02-22T19:21:07.273Z,1.40
2018-02-22T19:23:35.586Z,1.20
2018-02-22T19:26:03.145Z,1.20
2018-02-22T19:28:30.722Z,1.20
2018-02-22T19:30:58.487Z,1.10
2018-02-22T19:33:26.025Z,1.10
2018-02-22T19:35:53.619Z,1.10
2018-02-22T19:38:21.193Z,1.10
2018-02-22T19:40:48.803Z,1.10
2018-02-22T19:43:16.409Z,1.00
2018-02-22T19:45:44.091Z,1.00
2018-02-22T19:48:12.434Z,0.90
2018-02-22T19:50:40.000Z,0.90
2018-02-22T19:53:07.591Z,0.90
2018-02-22T19:55:35.157Z,0.90
2018-02-22T19:58:02.739Z,0.80
2018-02-22T20:00:30.305Z,0.70
2018-02-22T20:02:57.885Z,0.70
2018-02-22T20:05:25.487Z,0.60
2018-02-22T20:07:53.099Z,0.60
2018-02-22T20:10:20.660Z,0.60
2018-02-22T20:12:48.230Z,0.60
2018-02-22T20:15:15.877Z,0.60
2018-02-22T20:17:43.445Z,0.60
2018-02-22T20:20:11.016Z,0.50
2018-02-22T20:22:39.651Z,0.50
2018-02-22T20:25:08.061Z,0.40
2018-02-22T20:27:35.780Z,0.30
2018-02-22T20:30:03.371Z,0.30
2018-02-22T20:32:31.705Z,0.40
2018-02-22T20:35:00.157Z,0.40
2018-02-22T20:37:27.709Z,0.30
2018-02-22T20:39:55.368Z,0.40
2018-02-22T20:42:22.934Z,0.30
2018-02-22T20:44:50.528Z,0.30
2018-02-22T20:47:18.099Z,0.40
2018-02-22T20:49:45.692Z,0.40
2018-02-22T20:52:14.578Z,0.40
2018-02-22T20:54:42.183Z,0.40
2018-02-22T20:57:09.790Z,0.30
2018-02-22T20:59:38.145Z,0.10
2018-02-22T21:02:05.788Z,0.10
2018-02-22T21:04:33.347Z,0.10
2018-02-22T21:07:01.725Z,0.10
2018-02-22T21:09:29.396Z,0.10
2018-02-22T21:11:57.028Z,0.10
2018-02-22T21:14:24.649Z,0.10
2018-02-22T21:16:53.036Z,0.10
2018-02-22T21:19:21.362Z,0.10
2018-02-22T21:21:48.946Z,0.00
2018-02-22T21:24:16.512Z,0.00
2018-02-22T21:26:44.159Z,0.00
2018-02-22T21:29:11.738Z,0.00
2018-02-22T21:31:39.550Z,0.00
2018-02-22T21:34:07.123Z,0.00
2018-02-22T21:36:34.720Z,0.00
2018-02-22T21:39:03.848Z,-0.10
2018-02-22T21:41:31.440Z,-0.10
2018-02-22T21:43:59.805Z,-0.10
2018-02-22T21:46:27.370Z,-0.10
2018-02-22T21:48:55.009Z,-0.10
2018-02-22T21:51:23.360Z,-0.20
2018-02-22T21:53:52.602Z,-0.20
2018-02-22T21:56:20.297Z,-0.20
2018-02-22T21:58:47.877Z,-0.10
2018-02-22T22:01:15.441Z,-0.10
2018-02-22T22:03:43.121Z,-0.20
2018-02-22T22:06:11.466Z,-0.30
2018-02-22T22:08:39.038Z,-0.40
2018-02-22T22:11:07.357Z,-0.40
2018-02-22T22:13:34.981Z,-0.40
2018-02-22T22:16:03.298Z,-0.50
2018-02-22T22:18:30.871Z,-0.50
2018-02-22T22:20:58.470Z,-0.50
2018-02-22T22:23:26.823Z,-0.50
2018-02-22T22:25:54.389Z,-0.50
2018-02-22T22:28:21.977Z,-0.60
2018-02-22T22:30:49.665Z,-0.60
2018-02-22T22:33:17.250Z,-0.70
2018-02-22T22:35:44.805Z,-0.70
2018-02-22T22:38:12.385Z,-0.80
2018-02-22T22:40:40.043Z,-0.70
2018-02-22T22:43:07.616Z,-0.80
2018-02-22T22:45:35.222Z,-0.80
2018-02-22T22:48:03.540Z,-0.80
2018-02-22T22:50:31.180Z,-0.80
2018-02-22T22:52:59.559Z,-0.80
2018-02-22T22:55:27.274Z,-0.80
2018-02-22T22:57:55.001Z,-0.80
2018-02-22T23:00:22.587Z,-0.80
2018-02-22T23:02:50.170Z,-0.70
2018-02-22T23:05:18.508Z,-0.70
2018-02-22T23:07:46.085Z,-0.70
2018-02-22T23:10:13.688Z,-0.60
2018-02-22T23:12:42.045Z,-0.60
2018-02-22T23:15:09.630Z,-0.60
2018-02-22T23:17:37.956Z,-0.50
2018-02-22T23:20:05.561Z,-0.50
2018-02-22T23:22:33.905Z,-0.50
2018-02-22T23:25:01.509Z,-0.50
2018-02-22T23:27:29.127Z,-0.50
2018-02-22T23:29:56.735Z,-0.50
2018-02-22T23:32:25.090Z,-0.50
2018-02-22T23:34:53.434Z,-0.50
2018-02-22T23:37:21.094Z,-0.60
2018-02-22T23:39:48.726Z,-0.60
2018-02-22T23:42:31.246Z,-0.60
2018-02-22T23:44:58.811Z,-0.60
2018-02-22T23:47:26.399Z,-0.60
2018-02-22T23:49:54.006Z,-0.70
2018-02-22T23:52:21.587Z,-0.70
2018-02-22T23:54:49.163Z,-0.80
2018-02-22T23:57:16.731Z,-0.90
2018-02-22T23:59:44.310Z,-1.00
